Denmark, Wisconsin
Current Conditions -  °F | °C
As of 9:56 AM on Sunday 23 Nov 2014 (Local Time) from KMTW Reporting Station
Haze Haze  
Wind Chill: 37°   Ceiling: 400
Heat Index: 45°   Visibility: 4mi
Dew Point: 45°   Wind: 20mph
Humidity: 100%   Direction: 180°S
Pressure: 29.65"   Gusts: NA
Location:  44.35°N, 87.83°W
Report Text: KMTW 231556Z AUTO 18017KT 4SM BR OVC004 07/07 A2965 RMK AO2 SLP067 T00720072
Loading
Personal Weather Stations






























Interactive Weather Map New forecast layout! Learn more

10-Day Weather Forecast

Advertisements
Track Severe Weather on mobile